Burgaw, NC

11:11 PM EST on December 09, 2016 (GMT -0500)
Edgewood Community | | Change Station
Active Advisory: Special Statement

Elev 49 ft 34.57 °N, 77.92 °W | Updated 5 seconds ago

Clear
Clear
27.7 °F
Feels Like 28 °F
N
0.0
Wind Variable Wind from WNW
Gusts 0.0 mph

Today
High -- | Low -- °F
--% Chance of Precip.
Yesterday
High -- | Low -- °F
Precip. -- in
Pressure 30.48 in
Visibility 10.0 miles
Clouds Clear
Windchill 28 °F
Dew Point 20 °F
Humidity 73%
Rainfall 0.00 in
Snow Depth Not available.
7:07 AM 5:01 PM
Waxing Gibbous, 80% visible
METAR KILM 100353Z AUTO 00000KT 10SM CLR M02/M04 A3048 RMK AO2 SLP320 T10171044
Pressure 30.48 in
Visibility 10.0 miles
Clouds Clear
Windchill 28 °F
Dew Point 20 °F
Humidity 73%
Rainfall 0.00 in
Snow Depth Not available.
7:07 AM 5:01 PM
Waxing Gibbous, 80% visible
METAR KILM 100353Z AUTO 00000KT 10SM CLR M02/M04 A3048 RMK AO2 SLP320 T10171044

10-Day Weather Forecast

Almanac

Astronomy

Dec. 09, 2016 Rise Set
Actual Time
Civil Twilight
Nautical Twilight
Astronomical Twilight
Moon
Length of Visible Light
Length of Day
Tomorrow will be .
, % of the Moon is Illuminated

Today's Extremes

State Highs State Lows

Community

WunderPhotos

Upload Photos

1,956,529 photos uploaded!

WunderBlog® & News

Nearby

Air Quality

  Air Quality AQ Index Pollutant
Not available.

Snow Depth

Station Depth Elevation

Earthquake Activity

City Distance Mag. Time & Date
Minimum magnitude displayed is 2.5.

Coastal Water Temperatures

Place Temperature

Stations

Nearby Weather Stations

Station Location Temp. Windchill Dew Point Humidity Wind Precip. Elev Updated Type
                   

Watches & Warnings

Special Statement
Issued: 3:50 PM EST Dec. 9, 2016 – National Weather Service

... Coldest air since middle February to greet daybreak Saturday...

Minimum temperatures daybreak Saturday will bottom out in the
lower to middle 20s just before sunrise. Plants and pets should
be cared for... and any exposed outdoor pipes not insulated should
be allowed to drip to avoid possible damage.


8

350 PM EST Fri Dec 9 2016

... Coldest air since middle February to greet daybreak Saturday...

Minimum temperatures daybreak Saturday will bottom out in the
lower to middle 20s just before sunrise. Plants and pets should
be cared for... and any exposed outdoor pipes not insulated should
be allowed to drip to avoid possible damage.


8